sensor_id;sensor_type;location;lat;lon;timestamp;temperature;humidity
20005;DHT22;69160;45.498;-73.582;2023-07-22T00:01:02;22.70;99.90
20005;DHT22;69160;45.498;-73.582;2023-07-22T00:03:29;22.80;99.90
20005;DHT22;69160;45.498;-73.582;2023-07-22T00:06:05;22.80;99.90
20005;DHT22;69160;45.498;-73.582;2023-07-22T00:08:32;22.80;99.90
20005;DHT22;69160;45.498;-73.582;2023-07-22T00:10:58;22.80;99.90
20005;DHT22;69160;45.498;-73.582;2023-07-22T00:13:25;22.90;99.90
20005;DHT22;69160;45.498;-73.582;2023-07-22T00:15:53;22.90;99.90
20005;DHT22;69160;45.498;-73.582;2023-07-22T00:18:19;22.90;99.90
20005;DHT22;69160;45.498;-73.582;2023-07-22T00:20:45;22.90;99.90
20005;DHT22;69160;45.498;-73.582;2023-07-22T00:23:12;22.80;99.90
20005;DHT22;69160;45.498;-73.582;2023-07-22T00:25:38;22.70;99.70
20005;DHT22;69160;45.498;-73.582;2023-07-22T00:28:04;22.70;99.90
20005;DHT22;69160;45.498;-73.582;2023-07-22T00:30:30;22.80;99.90
20005;DHT22;69160;45.498;-73.582;2023-07-22T00:32:56;22.80;99.90
20005;DHT22;69160;45.498;-73.582;2023-07-22T00:35:23;22.80;99.90
20005;DHT22;69160;45.498;-73.582;2023-07-22T00:37:49;22.80;99.90
20005;DHT22;69160;45.498;-73.582;2023-07-22T00:40:15;22.90;99.90
20005;DHT22;69160;45.498;-73.582;2023-07-22T00:42:42;22.90;99.90
20005;DHT22;69160;45.498;-73.582;2023-07-22T00:45:09;23.00;99.90
20005;DHT22;69160;45.498;-73.582;2023-07-22T00:47:35;22.80;99.90
20005;DHT22;69160;45.498;-73.582;2023-07-22T00:50:03;22.70;99.90
20005;DHT22;69160;45.498;-73.582;2023-07-22T00:52:32;22.80;99.90
20005;DHT22;69160;45.498;-73.582;2023-07-22T00:54:59;22.80;99.90
20005;DHT22;69160;45.498;-73.582;2023-07-22T00:57:25;22.80;99.90
20005;DHT22;69160;45.498;-73.582;2023-07-22T00:59:51;22.80;99.90
20005;DHT22;69160;45.498;-73.582;2023-07-22T01:02:21;22.90;99.90
20005;DHT22;69160;45.498;-73.582;2023-07-22T01:04:49;22.90;99.90
20005;DHT22;69160;45.498;-73.582;2023-07-22T01:07:16;22.90;99.90
20005;DHT22;69160;45.498;-73.582;2023-07-22T01:09:43;22.80;99.90
20005;DHT22;69160;45.498;-73.582;2023-07-22T01:12:10;22.70;99.90
20005;DHT22;69160;45.498;-73.582;2023-07-22T01:14:38;22.60;99.80
20005;DHT22;69160;45.498;-73.582;2023-07-22T01:17:06;22.70;99.90
20005;DHT22;69160;45.498;-73.582;2023-07-22T01:19:34;22.70;99.90
20005;DHT22;69160;45.498;-73.582;2023-07-22T01:22:02;22.80;99.90
20005;DHT22;69160;45.498;-73.582;2023-07-22T01:24:29;22.80;99.90
20005;DHT22;69160;45.498;-73.582;2023-07-22T01:26:55;22.80;99.90
20005;DHT22;69160;45.498;-73.582;2023-07-22T01:29:23;22.90;99.90
20005;DHT22;69160;45.498;-73.582;2023-07-22T01:31:51;22.90;99.90
20005;DHT22;69160;45.498;-73.582;2023-07-22T01:34:18;22.90;99.90
20005;DHT22;69160;45.498;-73.582;2023-07-22T01:36:48;22.80;99.90
20005;DHT22;69160;45.498;-73.582;2023-07-22T01:39:15;22.70;99.90
20005;DHT22;69160;45.498;-73.582;2023-07-22T01:41:42;22.60;99.90
20005;DHT22;69160;45.498;-73.582;2023-07-22T01:44:08;22.60;99.90
20005;DHT22;69160;45.498;-73.582;2023-07-22T01:46:34;22.70;99.90
20005;DHT22;69160;45.498;-73.582;2023-07-22T01:49:05;22.80;99.90
20005;DHT22;69160;45.498;-73.582;2023-07-22T01:51:32;22.80;99.90
20005;DHT22;69160;45.498;-73.582;2023-07-22T01:53:58;22.80;99.90
20005;DHT22;69160;45.498;-73.582;2023-07-22T01:56:24;22.90;99.90
20005;DHT22;69160;45.498;-73.582;2023-07-22T01:58:51;22.90;99.90
20005;DHT22;69160;45.498;-73.582;2023-07-22T02:01:17;22.90;99.90
20005;DHT22;69160;45.498;-73.582;2023-07-22T02:03:43;22.80;99.90
20005;DHT22;69160;45.498;-73.582;2023-07-22T02:06:09;22.70;99.90
20005;DHT22;69160;45.498;-73.582;2023-07-22T02:08:35;22.70;99.90
20005;DHT22;69160;45.498;-73.582;2023-07-22T02:11:03;22.70;99.90
20005;DHT22;69160;45.498;-73.582;2023-07-22T02:13:30;22.70;99.90
20005;DHT22;69160;45.498;-73.582;2023-07-22T02:15:57;22.80;99.90
20005;DHT22;69160;45.498;-73.582;2023-07-22T02:18:23;22.80;99.90
20005;DHT22;69160;45.498;-73.582;2023-07-22T02:20:49;22.80;99.90
20005;DHT22;69160;45.498;-73.582;2023-07-22T02:23:15;22.90;99.90
20005;DHT22;69160;45.498;-73.582;2023-07-22T02:25:42;22.90;99.90
20005;DHT22;69160;45.498;-73.582;2023-07-22T02:28:08;22.90;99.90
20005;DHT22;69160;45.498;-73.582;2023-07-22T02:30:35;22.90;99.90
20005;DHT22;69160;45.498;-73.582;2023-07-22T02:33:02;22.80;99.90
20005;DHT22;69160;45.498;-73.582;2023-07-22T02:35:28;22.70;99.90
20005;DHT22;69160;45.498;-73.582;2023-07-22T02:37:54;22.70;99.90
20005;DHT22;69160;45.498;-73.582;2023-07-22T02:40:20;22.80;99.90
20005;DHT22;69160;45.498;-73.582;2023-07-22T02:42:47;22.80;99.90
20005;DHT22;69160;45.498;-73.582;2023-07-22T02:45:13;22.80;99.90
20005;DHT22;69160;45.498;-73.582;2023-07-22T02:47:39;22.80;99.90
20005;DHT22;69160;45.498;-73.582;2023-07-22T02:50:08;22.80;99.90
20005;DHT22;69160;45.498;-73.582;2023-07-22T02:52:35;22.80;99.90
20005;DHT22;69160;45.498;-73.582;2023-07-22T02:55:10;22.90;99.90
20005;DHT22;69160;45.498;-73.582;2023-07-22T02:57:37;22.70;99.90
20005;DHT22;69160;45.498;-73.582;2023-07-22T03:00:04;22.60;99.90
20005;DHT22;69160;45.498;-73.582;2023-07-22T03:02:35;22.70;99.90
20005;DHT22;69160;45.498;-73.582;2023-07-22T03:05:02;22.70;99.90
20005;DHT22;69160;45.498;-73.582;2023-07-22T03:07:30;22.70;99.90
20005;DHT22;69160;45.498;-73.582;2023-07-22T03:09:56;22.80;99.90
20005;DHT22;69160;45.498;-73.582;2023-07-22T03:12:22;22.80;99.90
20005;DHT22;69160;45.498;-73.582;2023-07-22T03:14:48;22.90;99.90
20005;DHT22;69160;45.498;-73.582;2023-07-22T03:17:17;22.90;99.90
20005;DHT22;69160;45.498;-73.582;2023-07-22T03:19:43;22.90;99.90
20005;DHT22;69160;45.498;-73.582;2023-07-22T03:22:13;22.90;99.90
20005;DHT22;69160;45.498;-73.582;2023-07-22T03:24:40;22.80;99.90
20005;DHT22;69160;45.498;-73.582;2023-07-22T03:27:06;22.70;99.90
20005;DHT22;69160;45.498;-73.582;2023-07-22T03:29:32;22.80;99.90
20005;DHT22;69160;45.498;-73.582;2023-07-22T03:31:59;22.80;99.90
20005;DHT22;69160;45.498;-73.582;2023-07-22T03:34:30;22.80;99.90
20005;DHT22;69160;45.498;-73.582;2023-07-22T03:36:57;22.90;99.90
20005;DHT22;69160;45.498;-73.582;2023-07-22T03:39:23;22.90;99.90
20005;DHT22;69160;45.498;-73.582;2023-07-22T03:41:49;22.90;99.90
20005;DHT22;69160;45.498;-73.582;2023-07-22T03:44:15;23.00;99.90
20005;DHT22;69160;45.498;-73.582;2023-07-22T03:46:42;23.10;99.90
20005;DHT22;69160;45.498;-73.582;2023-07-22T03:49:08;23.10;99.90
20005;DHT22;69160;45.498;-73.582;2023-07-22T03:51:34;23.00;99.90
20005;DHT22;69160;45.498;-73.582;2023-07-22T03:54:00;22.80;99.90
20005;DHT22;69160;45.498;-73.582;2023-07-22T03:56:26;22.80;99.90
20005;DHT22;69160;45.498;-73.582;2023-07-22T03:58:53;22.80;99.90
20005;DHT22;69160;45.498;-73.582;2023-07-22T04:01:19;22.90;99.90
20005;DHT22;69160;45.498;-73.582;2023-07-22T04:03:45;22.90;99.90
20005;DHT22;69160;45.498;-73.582;2023-07-22T04:06:11;22.90;99.90
20005;DHT22;69160;45.498;-73.582;2023-07-22T04:08:38;22.90;99.90
20005;DHT22;69160;45.498;-73.582;2023-07-22T04:11:04;22.90;99.90
20005;DHT22;69160;45.498;-73.582;2023-07-22T04:13:30;22.90;99.90
20005;DHT22;69160;45.498;-73.582;2023-07-22T04:15:56;22.90;99.90
20005;DHT22;69160;45.498;-73.582;2023-07-22T04:18:23;22.90;99.90
20005;DHT22;69160;45.498;-73.582;2023-07-22T04:20:55;22.80;99.90
20005;DHT22;69160;45.498;-73.582;2023-07-22T04:23:23;22.70;99.90
20005;DHT22;69160;45.498;-73.582;2023-07-22T04:25:49;22.70;99.90
20005;DHT22;69160;45.498;-73.582;2023-07-22T04:28:15;22.80;99.90
20005;DHT22;69160;45.498;-73.582;2023-07-22T04:30:41;22.80;99.90
20005;DHT22;69160;45.498;-73.582;2023-07-22T04:33:07;22.80;99.90
20005;DHT22;69160;45.498;-73.582;2023-07-22T04:35:40;22.80;99.90
20005;DHT22;69160;45.498;-73.582;2023-07-22T04:38:07;22.90;99.90
20005;DHT22;69160;45.498;-73.582;2023-07-22T04:40:33;22.80;99.90
20005;DHT22;69160;45.498;-73.582;2023-07-22T04:42:59;22.60;99.90
20005;DHT22;69160;45.498;-73.582;2023-07-22T04:45:25;22.70;99.90
20005;DHT22;69160;45.498;-73.582;2023-07-22T04:47:51;22.70;99.90
20005;DHT22;69160;45.498;-73.582;2023-07-22T04:50:18;22.80;99.90
20005;DHT22;69160;45.498;-73.582;2023-07-22T04:52:48;22.80;99.90
20005;DHT22;69160;45.498;-73.582;2023-07-22T04:55:14;22.80;99.90
20005;DHT22;69160;45.498;-73.582;2023-07-22T04:57:41;22.80;99.90
20005;DHT22;69160;45.498;-73.582;2023-07-22T05:00:11;22.80;99.90
20005;DHT22;69160;45.498;-73.582;2023-07-22T05:02:42;22.60;99.90
20005;DHT22;69160;45.498;-73.582;2023-07-22T05:05:12;22.60;99.90
20005;DHT22;69160;45.498;-73.582;2023-07-22T05:07:39;22.70;99.90
20005;DHT22;69160;45.498;-73.582;2023-07-22T05:10:06;22.70;99.90
20005;DHT22;69160;45.498;-73.582;2023-07-22T05:12:33;22.70;99.90
20005;DHT22;69160;45.498;-73.582;2023-07-22T05:14:59;22.70;99.90
20005;DHT22;69160;45.498;-73.582;2023-07-22T05:17:25;22.70;99.90
20005;DHT22;69160;45.498;-73.582;2023-07-22T05:19:51;22.80;99.90
20005;DHT22;69160;45.498;-73.582;2023-07-22T05:22:17;22.80;99.90
20005;DHT22;69160;45.498;-73.582;2023-07-22T05:24:44;22.80;99.90
20005;DHT22;69160;45.498;-73.582;2023-07-22T05:27:10;22.60;99.90
20005;DHT22;69160;45.498;-73.582;2023-07-22T05:29:36;22.50;99.90
20005;DHT22;69160;45.498;-73.582;2023-07-22T05:32:02;22.50;99.90
20005;DHT22;69160;45.498;-73.582;2023-07-22T05:34:28;22.60;99.90
20005;DHT22;69160;45.498;-73.582;2023-07-22T05:36:54;22.60;99.90
20005;DHT22;69160;45.498;-73.582;2023-07-22T05:39:20;22.70;99.90
20005;DHT22;69160;45.498;-73.582;2023-07-22T05:41:46;22.70;99.90
20005;DHT22;69160;45.498;-73.582;2023-07-22T05:44:13;22.70;99.90
20005;DHT22;69160;45.498;-73.582;2023-07-22T05:46:39;22.70;99.90
20005;DHT22;69160;45.498;-73.582;2023-07-22T05:49:05;22.80;99.90
20005;DHT22;69160;45.498;-73.582;2023-07-22T05:51:31;22.80;99.90
20005;DHT22;69160;45.498;-73.582;2023-07-22T05:53:57;22.70;99.90
20005;DHT22;69160;45.498;-73.582;2023-07-22T05:56:23;22.60;99.90
20005;DHT22;69160;45.498;-73.582;2023-07-22T05:58:49;22.50;99.90
20005;DHT22;69160;45.498;-73.582;2023-07-22T06:01:16;22.50;99.90
20005;DHT22;69160;45.498;-73.582;2023-07-22T06:03:42;22.60;99.90
20005;DHT22;69160;45.498;-73.582;2023-07-22T06:06:10;22.60;99.90
20005;DHT22;69160;45.498;-73.582;2023-07-22T06:08:36;22.70;99.90
20005;DHT22;69160;45.498;-73.582;2023-07-22T06:11:02;22.70;99.90
20005;DHT22;69160;45.498;-73.582;2023-07-22T06:13:28;22.70;99.90
20005;DHT22;69160;45.498;-73.582;2023-07-22T06:15:55;22.70;99.90
20005;DHT22;69160;45.498;-73.582;2023-07-22T06:18:21;22.80;99.90
20005;DHT22;69160;45.498;-73.582;2023-07-22T06:20:48;22.70;99.90
20005;DHT22;69160;45.498;-73.582;2023-07-22T06:23:14;22.70;99.90
20005;DHT22;69160;45.498;-73.582;2023-07-22T06:25:40;22.60;99.90
20005;DHT22;69160;45.498;-73.582;2023-07-22T06:28:07;22.60;99.90
20005;DHT22;69160;45.498;-73.582;2023-07-22T06:30:33;22.60;99.90
20005;DHT22;69160;45.498;-73.582;2023-07-22T06:32:59;22.60;99.90
20005;DHT22;69160;45.498;-73.582;2023-07-22T06:35:25;22.60;99.90
20005;DHT22;69160;45.498;-73.582;2023-07-22T06:37:51;22.70;99.90
20005;DHT22;69160;45.498;-73.582;2023-07-22T06:40:18;22.70;99.90
20005;DHT22;69160;45.498;-73.582;2023-07-22T06:42:44;22.70;99.90
20005;DHT22;69160;45.498;-73.582;2023-07-22T06:45:10;22.70;99.90
20005;DHT22;69160;45.498;-73.582;2023-07-22T06:47:36;22.80;99.90
20005;DHT22;69160;45.498;-73.582;2023-07-22T06:50:03;22.60;99.90
20005;DHT22;69160;45.498;-73.582;2023-07-22T06:52:33;22.50;99.90
20005;DHT22;69160;45.498;-73.582;2023-07-22T06:55:00;22.50;99.90
20005;DHT22;69160;45.498;-73.582;2023-07-22T06:57:26;22.50;99.90
20005;DHT22;69160;45.498;-73.582;2023-07-22T06:59:55;22.60;99.90
20005;DHT22;69160;45.498;-73.582;2023-07-22T07:02:22;22.60;99.90
20005;DHT22;69160;45.498;-73.582;2023-07-22T07:04:48;22.60;99.90
20005;DHT22;69160;45.498;-73.582;2023-07-22T07:07:15;22.70;99.90
20005;DHT22;69160;45.498;-73.582;2023-07-22T07:09:42;22.70;99.90
20005;DHT22;69160;45.498;-73.582;2023-07-22T07:12:08;22.70;99.90
20005;DHT22;69160;45.498;-73.582;2023-07-22T07:14:35;22.70;99.90
20005;DHT22;69160;45.498;-73.582;2023-07-22T07:17:02;22.70;99.90
20005;DHT22;69160;45.498;-73.582;2023-07-22T07:19:28;22.70;99.90
20005;DHT22;69160;45.498;-73.582;2023-07-22T07:21:54;22.60;99.90
20005;DHT22;69160;45.498;-73.582;2023-07-22T07:24:21;22.50;99.90
20005;DHT22;69160;45.498;-73.582;2023-07-22T07:26:47;22.50;99.90
20005;DHT22;69160;45.498;-73.582;2023-07-22T07:29:13;22.50;99.90
20005;DHT22;69160;45.498;-73.582;2023-07-22T07:31:39;22.50;99.90
20005;DHT22;69160;45.498;-73.582;2023-07-22T07:34:05;22.60;99.90
20005;DHT22;69160;45.498;-73.582;2023-07-22T07:36:33;22.60;99.90
20005;DHT22;69160;45.498;-73.582;2023-07-22T07:38:59;22.70;99.90
20005;DHT22;69160;45.498;-73.582;2023-07-22T07:41:25;22.70;99.90
20005;DHT22;69160;45.498;-73.582;2023-07-22T07:43:51;22.60;99.90
20005;DHT22;69160;45.498;-73.582;2023-07-22T07:46:26;22.60;99.90
20005;DHT22;69160;45.498;-73.582;2023-07-22T07:48:57;22.50;99.90
20005;DHT22;69160;45.498;-73.582;2023-07-22T07:51:25;22.50;99.90
20005;DHT22;69160;45.498;-73.582;2023-07-22T07:53:53;22.50;99.90
20005;DHT22;69160;45.498;-73.582;2023-07-22T07:56:20;22.50;99.90
20005;DHT22;69160;45.498;-73.582;2023-07-22T07:58:47;22.60;99.90
20005;DHT22;69160;45.498;-73.582;2023-07-22T08:01:14;22.60;99.90
20005;DHT22;69160;45.498;-73.582;2023-07-22T08:03:41;22.70;99.90
20005;DHT22;69160;45.498;-73.582;2023-07-22T08:06:08;22.70;99.90
20005;DHT22;69160;45.498;-73.582;2023-07-22T08:08:34;22.70;99.90
20005;DHT22;69160;45.498;-73.582;2023-07-22T08:11:08;22.60;99.90
20005;DHT22;69160;45.498;-73.582;2023-07-22T08:13:36;22.50;99.90
20005;DHT22;69160;45.498;-73.582;2023-07-22T08:16:03;22.40;99.90
20005;DHT22;69160;45.498;-73.582;2023-07-22T08:18:31;22.50;99.90
20005;DHT22;69160;45.498;-73.582;2023-07-22T08:20:57;22.50;99.90
20005;DHT22;69160;45.498;-73.582;2023-07-22T08:23:23;22.50;99.90
20005;DHT22;69160;45.498;-73.582;2023-07-22T08:25:50;22.60;99.90
20005;DHT22;69160;45.498;-73.582;2023-07-22T08:28:16;22.60;99.90
20005;DHT22;69160;45.498;-73.582;2023-07-22T08:30:43;22.60;99.90
20005;DHT22;69160;45.498;-73.582;2023-07-22T08:33:11;22.70;99.90
20005;DHT22;69160;45.498;-73.582;2023-07-22T08:35:40;22.60;99.90
20005;DHT22;69160;45.498;-73.582;2023-07-22T08:38:07;22.50;99.90
20005;DHT22;69160;45.498;-73.582;2023-07-22T08:40:38;22.50;99.90
20005;DHT22;69160;45.498;-73.582;2023-07-22T08:43:07;22.50;99.90
20005;DHT22;69160;45.498;-73.582;2023-07-22T08:45:35;22.50;99.90
20005;DHT22;69160;45.498;-73.582;2023-07-22T08:48:09;22.50;99.90
20005;DHT22;69160;45.498;-73.582;2023-07-22T08:53:26;22.60;99.90
20005;DHT22;69160;45.498;-73.582;2023-07-22T08:55:53;22.60;99.90
20005;DHT22;69160;45.498;-73.582;2023-07-22T08:58:20;22.70;99.90
20005;DHT22;69160;45.498;-73.582;2023-07-22T09:00:48;22.70;99.90
20005;DHT22;69160;45.498;-73.582;2023-07-22T09:03:14;22.70;99.90
20005;DHT22;69160;45.498;-73.582;2023-07-22T09:05:42;22.60;99.90
20005;DHT22;69160;45.498;-73.582;2023-07-22T09:08:09;22.50;99.90
20005;DHT22;69160;45.498;-73.582;2023-07-22T09:10:37;22.40;99.90
20005;DHT22;69160;45.498;-73.582;2023-07-22T09:13:03;22.50;99.90
20005;DHT22;69160;45.498;-73.582;2023-07-22T09:15:34;22.50;99.90
20005;DHT22;69160;45.498;-73.582;2023-07-22T09:18:02;22.50;99.90
20005;DHT22;69160;45.498;-73.582;2023-07-22T09:20:28;22.50;99.90
20005;DHT22;69160;45.498;-73.582;2023-07-22T09:22:54;22.60;99.90
20005;DHT22;69160;45.498;-73.582;2023-07-22T09:25:23;22.60;99.90
20005;DHT22;69160;45.498;-73.582;2023-07-22T09:27:53;22.70;99.90
20005;DHT22;69160;45.498;-73.582;2023-07-22T09:30:26;22.70;99.90
20005;DHT22;69160;45.498;-73.582;2023-07-22T09:32:57;22.70;99.90
20005;DHT22;69160;45.498;-73.582;2023-07-22T09:35:26;22.60;99.90
20005;DHT22;69160;45.498;-73.582;2023-07-22T09:37:53;22.50;99.90
20005;DHT22;69160;45.498;-73.582;2023-07-22T09:40:23;22.50;99.90
20005;DHT22;69160;45.498;-73.582;2023-07-22T09:42:54;22.50;99.90
20005;DHT22;69160;45.498;-73.582;2023-07-22T09:45:22;22.50;99.90
20005;DHT22;69160;45.498;-73.582;2023-07-22T09:47:50;22.60;99.90
20005;DHT22;69160;45.498;-73.582;2023-07-22T09:50:21;22.60;99.90
20005;DHT22;69160;45.498;-73.582;2023-07-22T09:52:58;22.60;99.90
20005;DHT22;69160;45.498;-73.582;2023-07-22T09:55:29;22.60;99.90
20005;DHT22;69160;45.498;-73.582;2023-07-22T09:58:04;22.60;99.90
20005;DHT22;69160;45.498;-73.582;2023-07-22T10:00:45;22.70;99.90
20005;DHT22;69160;45.498;-73.582;2023-07-22T10:03:16;22.70;99.90
20005;DHT22;69160;45.498;-73.582;2023-07-22T10:05:42;22.60;99.90
20005;DHT22;69160;45.498;-73.582;2023-07-22T10:08:12;22.50;99.90
20005;DHT22;69160;45.498;-73.582;2023-07-22T10:10:43;22.40;99.90
20005;DHT22;69160;45.498;-73.582;2023-07-22T10:13:10;22.50;99.90
20005;DHT22;69160;45.498;-73.582;2023-07-22T10:15:36;22.60;99.90
20005;DHT22;69160;45.498;-73.582;2023-07-22T10:18:04;22.50;99.90
20005;DHT22;69160;45.498;-73.582;2023-07-22T10:20:34;22.60;99.90
20005;DHT22;69160;45.498;-73.582;2023-07-22T10:23:02;22.70;99.90
20005;DHT22;69160;45.498;-73.582;2023-07-22T10:25:30;22.70;99.90
20005;DHT22;69160;45.498;-73.582;2023-07-22T10:27:56;22.70;99.90
20005;DHT22;69160;45.498;-73.582;2023-07-22T10:30:22;22.70;99.90
20005;DHT22;69160;45.498;-73.582;2023-07-22T10:32:51;22.70;99.90
20005;DHT22;69160;45.498;-73.582;2023-07-22T10:35:23;22.70;99.90
20005;DHT22;69160;45.498;-73.582;2023-07-22T10:38:13;22.60;99.90
20005;DHT22;69160;45.498;-73.582;2023-07-22T10:40:53;22.40;99.90
20005;DHT22;69160;45.498;-73.582;2023-07-22T10:43:33;22.40;99.90
20005;DHT22;69160;45.498;-73.582;2023-07-22T10:46:06;22.50;99.90
20005;DHT22;69160;45.498;-73.582;2023-07-22T10:48:38;22.50;99.90
20005;DHT22;69160;45.498;-73.582;2023-07-22T10:51:06;22.60;99.90
20005;DHT22;69160;45.498;-73.582;2023-07-22T10:53:37;22.70;99.90
20005;DHT22;69160;45.498;-73.582;2023-07-22T11:12:00;22.70;99.90
20005;DHT22;69160;45.498;-73.582;2023-07-22T11:14:28;22.70;99.90
20005;DHT22;69160;45.498;-73.582;2023-07-22T11:16:56;22.80;99.90
20005;DHT22;69160;45.498;-73.582;2023-07-22T11:19:24;22.80;99.90
20005;DHT22;69160;45.498;-73.582;2023-07-22T11:21:52;22.80;99.90
20005;DHT22;69160;45.498;-73.582;2023-07-22T11:24:19;22.70;99.90
20005;DHT22;69160;45.498;-73.582;2023-07-22T11:26:46;22.60;99.90
20005;DHT22;69160;45.498;-73.582;2023-07-22T11:29:13;22.60;99.90
20005;DHT22;69160;45.498;-73.582;2023-07-22T11:31:45;22.70;99.90
20005;DHT22;69160;45.498;-73.582;2023-07-22T11:34:13;22.70;99.90
20005;DHT22;69160;45.498;-73.582;2023-07-22T11:36:40;22.70;99.90
20005;DHT22;69160;45.498;-73.582;2023-07-22T11:39:08;22.80;99.90
20005;DHT22;69160;45.498;-73.582;2023-07-22T11:41:35;22.80;99.90
20005;DHT22;69160;45.498;-73.582;2023-07-22T11:44:03;22.80;99.90
20005;DHT22;69160;45.498;-73.582;2023-07-22T11:46:35;22.80;99.90
20005;DHT22;69160;45.498;-73.582;2023-07-22T11:49:02;22.80;99.90
20005;DHT22;69160;45.498;-73.582;2023-07-22T11:51:29;22.70;99.90
20005;DHT22;69160;45.498;-73.582;2023-07-22T11:53:55;22.70;99.90
20005;DHT22;69160;45.498;-73.582;2023-07-22T11:56:26;22.70;99.90
20005;DHT22;69160;45.498;-73.582;2023-07-22T11:58:54;22.70;99.90
20005;DHT22;69160;45.498;-73.582;2023-07-22T12:01:20;22.80;99.90
20005;DHT22;69160;45.498;-73.582;2023-07-22T12:03:47;22.80;99.90
20005;DHT22;69160;45.498;-73.582;2023-07-22T12:06:14;22.90;99.90
20005;DHT22;69160;45.498;-73.582;2023-07-22T12:08:48;22.90;99.90
20005;DHT22;69160;45.498;-73.582;2023-07-22T12:11:33;22.90;99.90
20005;DHT22;69160;45.498;-73.582;2023-07-22T12:14:10;22.80;99.90
20005;DHT22;69160;45.498;-73.582;2023-07-22T12:16:40;22.80;99.90
20005;DHT22;69160;45.498;-73.582;2023-07-22T12:19:08;22.70;99.90
20005;DHT22;69160;45.498;-73.582;2023-07-22T12:21:35;22.70;99.90
20005;DHT22;69160;45.498;-73.582;2023-07-22T12:24:01;22.70;99.90
20005;DHT22;69160;45.498;-73.582;2023-07-22T12:26:28;22.80;99.90
20005;DHT22;69160;45.498;-73.582;2023-07-22T12:28:54;22.80;99.90
20005;DHT22;69160;45.498;-73.582;2023-07-22T12:31:20;22.80;99.90
20005;DHT22;69160;45.498;-73.582;2023-07-22T12:33:47;22.90;99.90
20005;DHT22;69160;45.498;-73.582;2023-07-22T12:36:13;22.90;99.90
20005;DHT22;69160;45.498;-73.582;2023-07-22T12:38:39;22.90;99.90
20005;DHT22;69160;45.498;-73.582;2023-07-22T12:41:05;22.80;99.90
20005;DHT22;69160;45.498;-73.582;2023-07-22T12:43:31;22.70;99.90
20005;DHT22;69160;45.498;-73.582;2023-07-22T12:45:57;22.60;99.90
20005;DHT22;69160;45.498;-73.582;2023-07-22T12:48:23;22.70;99.90
20005;DHT22;69160;45.498;-73.582;2023-07-22T12:50:52;22.80;99.90
20005;DHT22;69160;45.498;-73.582;2023-07-22T12:53:18;22.80;99.90
20005;DHT22;69160;45.498;-73.582;2023-07-22T12:55:44;22.90;99.90
20005;DHT22;69160;45.498;-73.582;2023-07-22T12:58:11;22.90;99.90
20005;DHT22;69160;45.498;-73.582;2023-07-22T13:00:37;22.90;99.90
20005;DHT22;69160;45.498;-73.582;2023-07-22T13:03:04;22.80;99.90
20005;DHT22;69160;45.498;-73.582;2023-07-22T13:05:30;22.70;99.90
20005;DHT22;69160;45.498;-73.582;2023-07-22T13:07:56;22.60;99.90
20005;DHT22;69160;45.498;-73.582;2023-07-22T13:10:23;22.60;99.90
20005;DHT22;69160;45.498;-73.582;2023-07-22T13:12:51;22.70;99.90
20005;DHT22;69160;45.498;-73.582;2023-07-22T13:15:17;22.80;99.90
20005;DHT22;69160;45.498;-73.582;2023-07-22T13:17:43;22.80;99.90
20005;DHT22;69160;45.498;-73.582;2023-07-22T13:20:10;22.90;99.90
20005;DHT22;69160;45.498;-73.582;2023-07-22T13:22:38;22.90;99.90
20005;DHT22;69160;45.498;-73.582;2023-07-22T13:25:04;22.90;99.90
20005;DHT22;69160;45.498;-73.582;2023-07-22T13:27:30;22.90;99.90
20005;DHT22;69160;45.498;-73.582;2023-07-22T13:29:57;22.90;99.90
20005;DHT22;69160;45.498;-73.582;2023-07-22T13:32:23;23.00;99.90
20005;DHT22;69160;45.498;-73.582;2023-07-22T13:34:49;23.10;99.90
20005;DHT22;69160;45.498;-73.582;2023-07-22T13:37:15;23.10;99.90
20005;DHT22;69160;45.498;-73.582;2023-07-22T13:39:41;23.20;99.90
20005;DHT22;69160;45.498;-73.582;2023-07-22T13:42:08;23.20;99.90
20005;DHT22;69160;45.498;-73.582;2023-07-22T13:44:34;23.10;99.90
20005;DHT22;69160;45.498;-73.582;2023-07-22T13:47:01;23.00;99.90
20005;DHT22;69160;45.498;-73.582;2023-07-22T13:49:27;22.90;99.90
20005;DHT22;69160;45.498;-73.582;2023-07-22T13:51:53;22.90;99.90
20005;DHT22;69160;45.498;-73.582;2023-07-22T13:54:19;22.90;99.90
20005;DHT22;69160;45.498;-73.582;2023-07-22T13:56:45;22.90;99.90
20005;DHT22;69160;45.498;-73.582;2023-07-22T13:59:13;22.90;99.90
20005;DHT22;69160;45.498;-73.582;2023-07-22T14:01:40;23.00;99.90
20005;DHT22;69160;45.498;-73.582;2023-07-22T14:04:06;23.00;99.90
20005;DHT22;69160;45.498;-73.582;2023-07-22T14:06:32;23.00;99.90
20005;DHT22;69160;45.498;-73.582;2023-07-22T14:08:58;23.10;99.90
20005;DHT22;69160;45.498;-73.582;2023-07-22T14:11:25;23.10;99.90
20005;DHT22;69160;45.498;-73.582;2023-07-22T14:13:51;23.00;99.90
20005;DHT22;69160;45.498;-73.582;2023-07-22T14:16:18;23.00;99.90
20005;DHT22;69160;45.498;-73.582;2023-07-22T14:18:44;23.00;99.90
20005;DHT22;69160;45.498;-73.582;2023-07-22T14:21:10;22.80;99.90
20005;DHT22;69160;45.498;-73.582;2023-07-22T14:23:40;22.70;99.90
20005;DHT22;69160;45.498;-73.582;2023-07-22T14:26:06;22.80;99.90
20005;DHT22;69160;45.498;-73.582;2023-07-22T14:28:32;22.80;99.90
20005;DHT22;69160;45.498;-73.582;2023-07-22T14:30:59;22.80;99.90
20005;DHT22;69160;45.498;-73.582;2023-07-22T14:33:25;22.80;99.90
20005;DHT22;69160;45.498;-73.582;2023-07-22T14:35:51;22.80;99.90
20005;DHT22;69160;45.498;-73.582;2023-07-22T14:38:17;22.90;99.90
20005;DHT22;69160;45.498;-73.582;2023-07-22T14:40:43;22.90;99.90
20005;DHT22;69160;45.498;-73.582;2023-07-22T14:43:09;22.90;99.90
20005;DHT22;69160;45.498;-73.582;2023-07-22T14:45:35;22.90;99.90
20005;DHT22;69160;45.498;-73.582;2023-07-22T14:48:02;22.90;99.90
20005;DHT22;69160;45.498;-73.582;2023-07-22T14:50:28;22.90;99.90
20005;DHT22;69160;45.498;-73.582;2023-07-22T14:52:54;22.80;99.90
20005;DHT22;69160;45.498;-73.582;2023-07-22T14:55:20;22.70;99.90
20005;DHT22;69160;45.498;-73.582;2023-07-22T14:57:46;22.60;99.90
20005;DHT22;69160;45.498;-73.582;2023-07-22T15:00:12;22.70;99.90
20005;DHT22;69160;45.498;-73.582;2023-07-22T15:02:38;22.70;99.90
20005;DHT22;69160;45.498;-73.582;2023-07-22T15:05:05;22.80;99.90
20005;DHT22;69160;45.498;-73.582;2023-07-22T15:07:31;22.80;99.90
20005;DHT22;69160;45.498;-73.582;2023-07-22T15:09:58;22.80;99.90
20005;DHT22;69160;45.498;-73.582;2023-07-22T15:12:24;22.90;99.90
20005;DHT22;69160;45.498;-73.582;2023-07-22T15:14:50;22.90;99.90
20005;DHT22;69160;45.498;-73.582;2023-07-22T15:17:16;22.90;99.90
20005;DHT22;69160;45.498;-73.582;2023-07-22T15:19:43;22.90;99.90
20005;DHT22;69160;45.498;-73.582;2023-07-22T15:22:09;22.90;99.90